Lookout Mountain, Georgia
Current Conditions -  °F | °C
As of 10:53 AM on Thursday 29 Jan 2015 (Local Time) from KCHA Reporting Station
Overcast Overcast  
Wind Chill: 40°   Ceiling: 10000
Heat Index: 45°   Visibility: 10mi
Dew Point: 31°   Wind: 10mph
Humidity: 58%   Direction: 180°S
Pressure: 30.23"   Gusts: NA
Location:  34.98°N, 85.36°W
Report Text: KCHA 291553Z 18009KT 10SM FEW060 SCT080 BKN100 OVC150 07/M01 A3023 RMK AO2 SLP239 T00721006
Loading
Personal Weather Stations






























Interactive Weather Map New forecast layout! Learn more

10-Day Weather Forecast

Advertisements
Track Severe Weather on mobile